createdAt,value
2023-02-26T00:01:51.493Z,25.00
2023-02-26T00:04:20.200Z,23.70
2023-02-26T00:06:56.749Z,22.10
2023-02-26T00:09:26.734Z,25.90
2023-02-26T00:11:55.890Z,23.90
2023-02-26T00:14:25.035Z,24.70
2023-02-26T00:17:16.580Z,21.80
2023-02-26T00:19:50.699Z,21.80
2023-02-26T00:22:20.739Z,23.50
2023-02-26T00:24:49.225Z,21.70
2023-02-26T00:27:17.771Z,22.70
2023-02-26T00:29:46.655Z,24.30
2023-02-26T00:32:18.286Z,20.40
2023-02-26T00:34:47.860Z,22.60
2023-02-26T00:37:29.311Z,24.20
2023-02-26T00:40:07.918Z,25.50
2023-02-26T00:42:38.665Z,25.70
2023-02-26T00:45:09.317Z,25.70
2023-02-26T00:47:56.287Z,24.50
2023-02-26T00:50:26.312Z,24.30
2023-02-26T00:53:22.389Z,26.60
2023-02-26T00:55:51.836Z,22.70
2023-02-26T00:58:21.644Z,21.60
2023-02-26T01:00:50.335Z,23.20
2023-02-26T01:03:22.077Z,22.70
2023-02-26T01:05:51.354Z,25.50
2023-02-26T01:08:24.866Z,24.90
2023-02-26T01:10:54.018Z,25.00
2023-02-26T01:13:23.187Z,23.90
2023-02-26T01:15:55.775Z,22.30
2023-02-26T01:18:27.572Z,22.60
2023-02-26T01:21:05.722Z,24.10
2023-02-26T01:23:38.630Z,21.70
2023-02-26T01:26:29.553Z,21.90
2023-02-26T01:28:58.397Z,22.90
2023-02-26T01:31:42.543Z,21.70
2023-02-26T01:34:20.957Z,25.20
2023-02-26T01:36:53.832Z,22.60
2023-02-26T01:39:53.836Z,24.20
2023-02-26T01:42:24.248Z,23.60
2023-02-26T01:45:01.628Z,22.60
2023-02-26T01:47:36.344Z,22.70
2023-02-26T01:50:19.518Z,22.30
2023-02-26T01:52:48.644Z,23.80
2023-02-26T01:55:21.986Z,24.20
2023-02-26T01:57:53.172Z,24.00
2023-02-26T02:00:21.928Z,23.60
2023-02-26T02:02:51.462Z,23.70
2023-02-26T02:05:44.087Z,22.60
2023-02-26T02:08:14.366Z,25.20
2023-02-26T02:10:45.899Z,24.90
2023-02-26T02:13:28.629Z,23.90
2023-02-26T02:18:54.868Z,26.00
2023-02-26T02:21:51.396Z,24.10
2023-02-26T02:24:42.273Z,27.40
2023-02-26T02:27:37.519Z,23.40
2023-02-26T02:30:25.745Z,25.50
2023-02-26T02:33:05.893Z,21.40
2023-02-26T02:35:42.520Z,25.10
2023-02-26T02:38:16.426Z,25.70
2023-02-26T02:40:50.192Z,29.10
2023-02-26T02:43:24.618Z,28.10
2023-02-26T02:46:12.524Z,26.00
2023-02-26T02:48:44.096Z,23.60
2023-02-26T02:51:25.876Z,24.90
2023-02-26T02:53:57.716Z,26.20
2023-02-26T02:56:29.598Z,25.60
2023-02-26T02:59:03.303Z,24.00
2023-02-26T03:01:31.856Z,26.50
2023-02-26T03:04:04.641Z,22.60
2023-02-26T03:06:33.391Z,22.40
2023-02-26T03:09:08.048Z,22.70
2023-02-26T03:11:37.553Z,25.80
2023-02-26T03:14:06.958Z,23.70
2023-02-26T03:17:04.654Z,24.80
2023-02-26T03:19:53.938Z,24.90
2023-02-26T03:22:27.434Z,23.70
2023-02-26T03:25:16.477Z,22.60
2023-02-26T03:28:09.872Z,28.00
2023-02-26T03:31:02.123Z,26.20
2023-02-26T03:33:40.165Z,26.10
2023-02-26T03:36:11.362Z,26.10
2023-02-26T03:38:54.970Z,26.60
2023-02-26T03:41:36.928Z,27.00
2023-02-26T03:44:34.245Z,28.80
2023-02-26T03:47:07.227Z,26.80
2023-02-26T03:49:40.035Z,26.60
2023-02-26T03:52:08.780Z,25.60
2023-02-26T03:55:04.976Z,24.40
2023-02-26T03:57:56.566Z,28.00
2023-02-26T04:00:35.508Z,28.00
2023-02-26T04:03:10.131Z,24.60
2023-02-26T04:05:40.932Z,26.00
2023-02-26T04:08:09.978Z,25.90
2023-02-26T04:10:43.571Z,23.40
2023-02-26T04:13:15.358Z,23.50
2023-02-26T04:15:44.847Z,28.00
2023-02-26T04:18:13.383Z,30.50
2023-02-26T04:20:42.132Z,26.90
2023-02-26T04:23:11.949Z,28.80
2023-02-26T04:25:42.244Z,23.30
2023-02-26T04:28:12.204Z,23.00
2023-02-26T04:30:42.159Z,24.50
2023-02-26T04:33:13.681Z,20.80
2023-02-26T04:35:42.986Z,21.70
2023-02-26T04:38:12.282Z,21.30
2023-02-26T04:40:41.227Z,22.20
2023-02-26T04:43:11.252Z,22.20
2023-02-26T04:45:47.224Z,19.90
2023-02-26T04:48:17.925Z,19.40
2023-02-26T04:50:49.183Z,18.60
2023-02-26T04:53:19.438Z,18.70
2023-02-26T04:55:50.763Z,20.10
2023-02-26T04:58:24.385Z,18.90
2023-02-26T05:00:55.158Z,18.90
2023-02-26T05:03:23.981Z,19.00
2023-02-26T05:05:52.451Z,18.30
2023-02-26T05:08:23.603Z,19.90
2023-02-26T05:10:53.981Z,19.40
2023-02-26T05:13:22.568Z,19.00
2023-02-26T05:15:54.182Z,17.70
2023-02-26T05:18:22.996Z,25.90
2023-02-26T05:20:55.839Z,24.40
2023-02-26T05:23:25.094Z,23.50
2023-02-26T05:25:57.669Z,22.10
2023-02-26T05:30:57.420Z,19.40
2023-02-26T05:33:27.103Z,18.60
2023-02-26T05:35:58.000Z,21.60
2023-02-26T05:38:26.659Z,20.20
2023-02-26T05:40:58.033Z,17.70
2023-02-26T05:43:27.043Z,19.40
2023-02-26T05:45:55.876Z,20.30
2023-02-26T05:48:24.585Z,18.70
2023-02-26T05:50:53.417Z,21.40
2023-02-26T05:53:22.144Z,22.50
2023-02-26T05:55:51.022Z,22.40
2023-02-26T05:58:21.528Z,22.50
2023-02-26T06:00:50.731Z,22.30
2023-02-26T06:03:20.406Z,21.90
2023-02-26T06:05:49.173Z,19.30
2023-02-26T06:08:18.762Z,20.00
2023-02-26T06:10:47.264Z,18.60
2023-02-26T06:13:16.602Z,17.40
2023-02-26T06:15:45.273Z,16.80
2023-02-26T06:18:13.910Z,17.80
2023-02-26T06:20:45.231Z,14.00
2023-02-26T06:23:15.402Z,12.00
2023-02-26T06:25:44.347Z,15.60
2023-02-26T06:28:13.880Z,15.50
2023-02-26T06:30:42.654Z,17.50
2023-02-26T06:33:11.333Z,17.70
2023-02-26T06:35:40.376Z,16.90
2023-02-26T06:38:10.866Z,19.60
2023-02-26T06:40:40.412Z,19.20
2023-02-26T06:43:09.022Z,17.20
2023-02-26T06:45:39.910Z,18.60
2023-02-26T06:48:09.380Z,16.30
2023-02-26T06:50:38.809Z,14.50
2023-02-26T06:53:08.134Z,13.00
2023-02-26T06:55:44.027Z,14.80
2023-02-26T06:58:12.863Z,14.00
2023-02-26T07:00:42.480Z,13.70
2023-02-26T07:03:15.940Z,12.80
2023-02-26T07:05:45.477Z,12.70
2023-02-26T07:08:14.293Z,11.10
2023-02-26T07:10:45.433Z,12.90
2023-02-26T07:13:16.326Z,10.90
2023-02-26T07:15:46.331Z,10.60
2023-02-26T07:18:16.531Z,9.70
2023-02-26T07:20:45.911Z,8.90
2023-02-26T07:23:14.591Z,8.30
2023-02-26T07:25:43.525Z,8.30
2023-02-26T07:28:18.157Z,7.10
2023-02-26T07:30:51.822Z,7.00
2023-02-26T07:33:20.851Z,6.90
2023-02-26T07:35:49.369Z,7.00
2023-02-26T07:38:19.635Z,6.30
2023-02-26T07:40:49.954Z,10.30
2023-02-26T07:43:19.123Z,7.50
2023-02-26T07:45:53.178Z,13.00
2023-02-26T07:48:21.720Z,8.10
2023-02-26T07:51:03.035Z,6.90
2023-02-26T07:53:33.423Z,7.40
2023-02-26T07:56:06.538Z,7.30
2023-02-26T07:58:36.511Z,7.30
2023-02-26T08:01:05.234Z,6.20
2023-02-26T08:03:33.782Z,6.80
2023-02-26T08:06:03.414Z,6.30
2023-02-26T08:08:34.850Z,8.30
2023-02-26T08:11:03.598Z,8.10
2023-02-26T08:13:32.340Z,11.90
2023-02-26T08:16:01.038Z,19.70
2023-02-26T08:18:32.507Z,13.10
2023-02-26T08:21:02.069Z,10.50
2023-02-26T08:23:31.270Z,51.40
2023-02-26T08:26:11.433Z,110.40
2023-02-26T08:28:40.321Z,20.30
2023-02-26T08:31:11.566Z,11.30
2023-02-26T08:33:41.283Z,15.30
2023-02-26T08:36:10.238Z,11.70
2023-02-26T08:38:40.864Z,54.80
2023-02-26T08:41:10.603Z,11.70
2023-02-26T08:43:39.390Z,10.60
2023-02-26T08:46:08.427Z,7.10
2023-02-26T08:48:39.005Z,6.00
2023-02-26T08:51:08.053Z,6.40
2023-02-26T08:53:48.442Z,4.60
2023-02-26T08:56:24.795Z,5.00
2023-02-26T08:58:53.086Z,4.70
2023-02-26T09:01:21.514Z,5.10
2023-02-26T09:03:49.648Z,4.20
2023-02-26T09:06:17.810Z,4.80
2023-02-26T09:08:48.201Z,4.10
2023-02-26T09:11:17.577Z,4.40
2023-02-26T09:13:46.128Z,4.70
2023-02-26T09:16:14.946Z,4.80
2023-02-26T09:18:46.884Z,4.60
2023-02-26T09:21:15.768Z,4.10
2023-02-26T09:23:45.492Z,4.80
2023-02-26T09:26:14.377Z,5.20
2023-02-26T09:28:43.165Z,4.40
2023-02-26T09:31:11.998Z,3.70
2023-02-26T09:33:40.684Z,3.70
2023-02-26T09:36:10.253Z,4.90
2023-02-26T09:38:38.603Z,6.10
2023-02-26T09:41:22.827Z,3.50
2023-02-26T09:44:04.057Z,24.80
2023-02-26T09:46:57.309Z,50.60
2023-02-26T09:49:53.505Z,21.20
2023-02-26T09:52:33.996Z,8.70
2023-02-26T09:55:15.736Z,9.10
2023-02-26T09:57:46.764Z,5.50
2023-02-26T10:00:20.788Z,4.90
2023-02-26T10:03:27.045Z,4.60
2023-02-26T10:06:13.439Z,4.90
2023-02-26T10:09:21.320Z,6.50
2023-02-26T10:12:10.883Z,5.50
2023-02-26T10:14:53.316Z,5.60
2023-02-26T10:17:53.355Z,5.50
2023-02-26T10:20:37.112Z,4.90
2023-02-26T10:23:36.367Z,5.00
2023-02-26T10:26:22.739Z,4.60
2023-02-26T10:28:56.960Z,4.10
2023-02-26T10:31:51.206Z,3.60
2023-02-26T10:34:37.339Z,3.70
2023-02-26T10:37:28.280Z,4.30
2023-02-26T10:40:29.361Z,3.30
2023-02-26T10:43:23.619Z,3.60
2023-02-26T10:46:08.180Z,4.30
2023-02-26T10:48:55.714Z,4.20
2023-02-26T10:51:26.400Z,3.70
2023-02-26T10:54:00.384Z,3.80
2023-02-26T10:56:33.610Z,3.00
2023-02-26T10:59:08.811Z,4.10
2023-02-26T11:01:37.499Z,3.60
2023-02-26T11:04:13.119Z,3.20
2023-02-26T11:07:05.409Z,3.90
2023-02-26T11:09:39.851Z,3.80
2023-02-26T11:12:13.793Z,5.70
2023-02-26T11:14:43.223Z,17.10
2023-02-26T11:17:14.720Z,10.90
2023-02-26T11:19:50.640Z,51.80
2023-02-26T11:22:19.517Z,39.60
2023-02-26T11:24:49.710Z,61.60
2023-02-26T11:27:20.831Z,39.50
2023-02-26T11:29:58.470Z,20.20
2023-02-26T11:32:32.552Z,6.30
2023-02-26T11:35:08.687Z,10.90
2023-02-26T11:40:18.343Z,6.20
2023-02-26T11:42:59.910Z,10.80
2023-02-26T11:45:28.479Z,65.90
2023-02-26T11:48:08.326Z,26.40
2023-02-26T11:50:45.604Z,10.20
2023-02-26T11:53:50.751Z,6.00
2023-02-26T11:56:44.103Z,4.70
2023-02-26T11:59:24.501Z,4.80
2023-02-26T12:01:53.514Z,5.00
2023-02-26T12:04:26.210Z,3.80
2023-02-26T12:06:56.132Z,4.10
2023-02-26T12:09:25.491Z,4.50
2023-02-26T12:12:10.886Z,3.90
2023-02-26T12:14:55.347Z,4.20
2023-02-26T12:17:47.365Z,4.20
2023-02-26T12:20:20.227Z,4.30
2023-02-26T12:23:09.789Z,5.20
2023-02-26T12:26:18.886Z,5.10
2023-02-26T12:28:58.857Z,4.30
2023-02-26T12:31:32.791Z,3.80
2023-02-26T12:34:15.670Z,4.90
2023-02-26T12:36:53.375Z,3.80
2023-02-26T12:39:49.807Z,4.20
2023-02-26T12:42:25.793Z,3.00
2023-02-26T12:45:00.843Z,3.30
2023-02-26T12:47:44.614Z,3.80
2023-02-26T12:50:45.762Z,3.90
2023-02-26T12:53:33.374Z,5.60
2023-02-26T12:56:25.543Z,5.00
2023-02-26T13:02:00.861Z,7.30
2023-02-26T13:04:42.672Z,9.50
2023-02-26T13:07:38.529Z,11.20
2023-02-26T13:10:16.009Z,7.10
2023-02-26T13:12:48.376Z,6.50
2023-02-26T13:15:44.819Z,6.00
2023-02-26T13:18:31.723Z,6.50
2023-02-26T13:21:05.079Z,7.10
2023-02-26T13:23:47.291Z,7.60
2023-02-26T13:26:16.764Z,6.60
2023-02-26T13:29:00.960Z,6.70
2023-02-26T13:31:54.976Z,6.30
2023-02-26T13:34:42.670Z,9.40
2023-02-26T13:37:22.745Z,8.10
2023-02-26T13:40:08.446Z,7.50
2023-02-26T13:43:09.979Z,7.20
2023-02-26T13:46:07.593Z,13.60
2023-02-26T13:48:36.844Z,9.30
2023-02-26T13:51:14.605Z,30.50
2023-02-26T13:53:51.410Z,28.20
2023-02-26T13:56:28.909Z,21.50
2023-02-26T13:59:03.318Z,20.70
2023-02-26T14:01:33.745Z,15.10
2023-02-26T14:04:15.010Z,6.80
2023-02-26T14:06:48.807Z,8.00
2023-02-26T14:09:24.204Z,10.30
2023-02-26T14:12:01.238Z,12.00
2023-02-26T14:14:40.942Z,12.40
2023-02-26T14:17:15.010Z,13.50
2023-02-26T14:19:55.032Z,14.40
2023-02-26T14:22:31.608Z,17.20
2023-02-26T14:25:00.494Z,14.40
2023-02-26T14:27:46.903Z,13.20
2023-02-26T14:30:35.018Z,15.70
2023-02-26T14:33:06.026Z,18.70
2023-02-26T14:35:43.974Z,19.30
2023-02-26T14:38:15.181Z,13.00
2023-02-26T14:40:48.342Z,9.90
2023-02-26T14:43:39.962Z,8.80
2023-02-26T14:46:09.810Z,10.40
2023-02-26T14:48:39.513Z,12.40
2023-02-26T14:51:28.553Z,10.70
2023-02-26T14:54:12.993Z,9.40
2023-02-26T14:57:12.904Z,9.40
2023-02-26T14:59:56.681Z,8.80
2023-02-26T15:02:59.479Z,9.90
2023-02-26T15:05:41.169Z,15.20
2023-02-26T15:08:36.728Z,11.50
2023-02-26T15:11:21.404Z,10.20
2023-02-26T15:13:59.757Z,10.80
2023-02-26T15:16:47.189Z,11.60
2023-02-26T15:19:28.372Z,13.30
2023-02-26T15:22:20.657Z,14.30
2023-02-26T15:24:49.516Z,13.20
2023-02-26T15:27:19.529Z,12.50
2023-02-26T15:29:50.565Z,11.80
2023-02-26T15:32:30.452Z,14.60
2023-02-26T15:35:02.070Z,14.70
2023-02-26T15:37:35.469Z,12.50
2023-02-26T15:40:06.699Z,12.80
2023-02-26T15:42:39.360Z,14.20
2023-02-26T15:45:23.059Z,15.00
2023-02-26T15:48:00.650Z,21.10
2023-02-26T15:50:30.278Z,21.30
2023-02-26T15:53:01.249Z,22.50
2023-02-26T15:55:35.940Z,19.00
2023-02-26T15:58:07.041Z,25.40
2023-02-26T16:00:36.823Z,27.20
2023-02-26T16:03:10.098Z,41.50
2023-02-26T16:05:39.317Z,36.80
2023-02-26T16:08:12.047Z,23.80
2023-02-26T16:10:42.051Z,27.40
2023-02-26T16:13:14.838Z,57.50
2023-02-26T16:15:47.531Z,82.70
2023-02-26T16:18:18.410Z,46.00
2023-02-26T16:20:48.733Z,21.70
2023-02-26T16:23:22.322Z,10.80
2023-02-26T16:28:22.570Z,7.70
2023-02-26T16:30:54.921Z,8.90
2023-02-26T16:33:25.597Z,10.90
2023-02-26T16:36:18.062Z,8.40
2023-02-26T16:39:01.683Z,9.00
2023-02-26T16:41:35.399Z,10.70
2023-02-26T16:44:38.281Z,12.00
2023-02-26T16:47:08.656Z,14.50
2023-02-26T16:49:38.036Z,16.10
2023-02-26T16:52:06.994Z,15.20
2023-02-26T16:54:38.569Z,18.30
2023-02-26T16:57:17.576Z,20.00
2023-02-26T16:59:53.579Z,18.40
2023-02-26T17:02:24.972Z,15.50
2023-02-26T17:05:00.288Z,11.30
2023-02-26T17:07:34.302Z,12.80
2023-02-26T17:10:20.881Z,11.90
2023-02-26T17:12:51.121Z,17.40
2023-02-26T17:15:36.497Z,18.20
2023-02-26T17:18:10.017Z,15.60
2023-02-26T17:20:40.695Z,15.00
2023-02-26T17:23:09.541Z,18.40
2023-02-26T17:25:40.330Z,22.00
2023-02-26T17:28:18.014Z,22.70
2023-02-26T17:30:46.861Z,22.30
2023-02-26T17:33:15.715Z,19.30
2023-02-26T17:35:44.749Z,19.60
2023-02-26T17:38:14.612Z,15.30
2023-02-26T17:40:45.564Z,12.20
2023-02-26T17:43:14.870Z,8.40
2023-02-26T17:45:44.366Z,11.10
2023-02-26T17:48:16.325Z,10.40
2023-02-26T17:50:55.613Z,10.50
2023-02-26T17:53:27.771Z,11.40
2023-02-26T17:55:56.941Z,13.80
2023-02-26T17:58:32.304Z,12.10
2023-02-26T18:01:03.061Z,16.90
2023-02-26T18:03:32.249Z,16.70
2023-02-26T18:06:01.329Z,18.30
2023-02-26T18:08:32.312Z,19.50
2023-02-26T18:11:03.534Z,16.00
2023-02-26T18:13:33.029Z,15.20
2023-02-26T18:16:02.525Z,17.60
2023-02-26T18:18:33.968Z,14.30
2023-02-26T18:21:02.981Z,16.30
2023-02-26T18:23:34.971Z,16.00
2023-02-26T18:26:03.850Z,16.10
2023-02-26T18:28:33.267Z,19.70
2023-02-26T18:31:08.927Z,19.40
2023-02-26T18:33:41.757Z,19.40
2023-02-26T18:36:24.195Z,23.10
2023-02-26T18:38:54.928Z,23.90
2023-02-26T18:41:25.155Z,24.20
2023-02-26T18:43:54.390Z,23.10
2023-02-26T18:46:27.264Z,22.40
2023-02-26T18:48:56.782Z,21.80
2023-02-26T18:51:30.697Z,30.50
2023-02-26T18:53:59.516Z,32.20
2023-02-26T18:56:29.059Z,26.00
2023-02-26T18:58:58.126Z,26.40
2023-02-26T19:01:30.544Z,22.20
2023-02-26T19:03:59.824Z,22.90
2023-02-26T19:06:29.083Z,28.30
2023-02-26T19:09:02.955Z,51.20
2023-02-26T19:11:31.748Z,65.50
2023-02-26T19:14:01.519Z,41.80
2023-02-26T19:16:35.337Z,27.90
2023-02-26T19:19:11.971Z,22.00
2023-02-26T19:21:41.880Z,24.30
2023-02-26T19:24:11.795Z,26.70
2023-02-26T19:26:42.483Z,17.30
2023-02-26T19:29:16.737Z,17.90
2023-02-26T19:31:46.342Z,15.20
2023-02-26T19:34:15.173Z,15.40
2023-02-26T19:36:48.554Z,15.30
2023-02-26T19:39:18.895Z,14.00
2023-02-26T19:41:51.035Z,16.80
2023-02-26T19:44:20.483Z,16.20
2023-02-26T19:46:49.144Z,16.90
2023-02-26T19:49:18.398Z,20.10
2023-02-26T19:51:46.924Z,25.30
2023-02-26T19:54:15.689Z,34.20
2023-02-26T19:56:44.650Z,40.90
2023-02-26T19:59:13.386Z,41.70
2023-02-26T20:01:44.376Z,42.40
2023-02-26T20:04:14.050Z,44.60
2023-02-26T20:06:44.469Z,54.40
2023-02-26T20:09:17.387Z,57.20
2023-02-26T20:11:47.497Z,48.60
2023-02-26T20:14:16.737Z,43.10
2023-02-26T20:16:47.335Z,41.70
2023-02-26T20:19:16.254Z,24.20
2023-02-26T20:21:49.757Z,15.50
2023-02-26T20:24:20.169Z,18.20
2023-02-26T20:26:49.240Z,23.10
2023-02-26T20:29:18.758Z,21.00
2023-02-26T20:31:50.411Z,18.00
2023-02-26T20:34:19.648Z,19.00
2023-02-26T20:36:50.184Z,22.80
2023-02-26T20:39:39.570Z,22.40
2023-02-26T20:42:09.060Z,21.70
2023-02-26T20:44:37.776Z,16.30
2023-02-26T20:47:06.498Z,26.10
2023-02-26T20:49:35.257Z,23.80
2023-02-26T20:52:04.830Z,18.90
2023-02-26T20:54:34.347Z,16.60
2023-02-26T20:57:03.443Z,21.80
2023-02-26T20:59:33.010Z,17.40
2023-02-26T21:02:08.503Z,14.60
2023-02-26T21:04:38.341Z,15.10
2023-02-26T21:07:22.188Z,17.50
2023-02-26T21:09:55.751Z,22.80
2023-02-26T21:12:24.582Z,25.00
2023-02-26T21:14:55.955Z,21.60
2023-02-26T21:17:25.338Z,26.70
2023-02-26T21:19:54.095Z,30.30
2023-02-26T21:22:24.255Z,33.50
2023-02-26T21:24:54.975Z,49.60
2023-02-26T21:27:24.194Z,55.80
2023-02-26T21:29:52.842Z,37.30
2023-02-26T21:32:21.597Z,42.00
2023-02-26T21:34:50.640Z,43.50
2023-02-26T21:37:20.782Z,34.80
2023-02-26T21:39:49.784Z,42.20
2023-02-26T21:42:18.628Z,39.70
2023-02-26T21:44:48.630Z,34.40
2023-02-26T21:47:18.321Z,25.20
2023-02-26T21:49:49.566Z,21.80
2023-02-26T21:52:18.554Z,19.60
2023-02-26T21:54:47.542Z,19.30
2023-02-26T21:57:15.560Z,16.60
2023-02-26T21:59:43.582Z,20.80
2023-02-26T22:02:12.212Z,21.10
2023-02-26T22:04:42.321Z,19.10
2023-02-26T22:07:11.612Z,25.80
2023-02-26T22:09:40.149Z,37.60
2023-02-26T22:12:08.809Z,48.10
2023-02-26T22:14:37.373Z,47.30
2023-02-26T22:17:06.352Z,50.00
2023-02-26T22:19:36.996Z,50.50
2023-02-26T22:22:05.580Z,50.40
2023-02-26T22:24:35.190Z,52.50
2023-02-26T22:27:04.128Z,51.90
2023-02-26T22:29:34.284Z,48.60
2023-02-26T22:32:03.110Z,54.40
2023-02-26T22:34:33.924Z,55.00
2023-02-26T22:37:02.540Z,46.00
2023-02-26T22:39:31.446Z,38.40
2023-02-26T22:42:00.152Z,27.40
2023-02-26T22:44:29.033Z,24.40
2023-02-26T22:46:58.083Z,23.90
2023-02-26T22:49:26.920Z,20.30
2023-02-26T22:51:56.488Z,25.40
2023-02-26T22:54:25.700Z,24.60
2023-02-26T22:56:54.589Z,26.10
2023-02-26T22:59:23.478Z,30.20
2023-02-26T23:01:52.070Z,40.50
2023-02-26T23:04:20.881Z,43.30
2023-02-26T23:06:49.508Z,47.50
2023-02-26T23:09:18.473Z,52.80
2023-02-26T23:11:47.471Z,57.70
2023-02-26T23:14:23.775Z,63.50
2023-02-26T23:16:52.286Z,51.40
2023-02-26T23:19:21.164Z,47.60
2023-02-26T23:21:50.150Z,34.50
2023-02-26T23:24:18.895Z,40.20
2023-02-26T23:26:51.747Z,34.80
2023-02-26T23:29:24.567Z,29.00
2023-02-26T23:31:53.429Z,32.00
2023-02-26T23:34:22.243Z,31.80
2023-02-26T23:36:51.361Z,27.70
2023-02-26T23:39:20.473Z,37.80
2023-02-26T23:41:49.179Z,39.80
2023-02-26T23:44:18.079Z,35.90
2023-02-26T23:46:46.725Z,31.00
2023-02-26T23:49:19.746Z,23.30
2023-02-26T23:51:49.566Z,22.20
2023-02-26T23:54:18.240Z,19.20
2023-02-26T23:56:48.504Z,19.50
2023-02-26T23:59:18.693Z,24.20
